Latest Weather Observations for Warwick

IDQ60901

Issued at 8:31 am EST Monday 27 April 2015 (issued every 10 minutes, with the page automatically refreshed every 10 minutes)

About weather observations | Map of Brisbane area stations | Latest observations for Brisbane area | Other Formats
Station Details ID: 041525 Name: WARWICK Lat: -28.21 Lon: 152.10 Height: 475.4 m
Data from the previous 72 hours. | See also: Recent months at Warwick
Date/Time
EST
Tmp

°C
App
Tmp
°C
Dew
Point
°C
Rel
Hum
%
Delta-T

°C
Wind Press
QNH
hPa
Press
MSL
hPa
Rain
since
9 am
mm
Dir
 
Spd
km/h
Gust
km/h
Spd
kts
Gust
kts
27/08:30am 10.6 9.7 6.0 73 2.2 CALM 0 0 0 0 1019.8 1018.3 0.0
27/08:00am 7.2 6.1 5.2 87 0.9 CALM 0 0 0 0 1019.6 1018.0 0.0
27/07:30am 4.9 3.6 4.0 94 0.4 CALM 0 0 0 0 1019.2 1017.7 0.0
27/07:00am 3.5 2.0 3.0 97 0.2 CALM 0 0 0 0 1018.9 1017.4 0.0
27/06:30am 2.5 0.8 2.0 96 0.2 CALM 0 0 0 0 1018.4 1016.9 0.0
27/06:00am 2.5 0.8 1.7 94 0.3 CALM 0 0 0 0 1018.0 1016.5 0.0
27/05:30am 4.1 2.7 3.4 95 0.3 CALM 0 0 0 0 1017.7 1016.1 0.0
27/05:00am 4.3 2.9 3.4 94 0.4 CALM 0 0 0 0 1017.3 1015.7 0.0
27/04:30am 3.5 2.1 3.3 99 0.1 CALM 0 0 0 0 1016.9 1015.4 0.0
27/04:00am 3.8 2.4 3.6 99 0.1 CALM 0 0 0 0 1016.8 1015.3 0.0
27/03:30am 4.6 3.1 3.2 91 0.6 CALM 0 0 0 0 1016.8 1015.3 0.0
27/03:00am 4.5 3.0 3.1 91 0.6 CALM 0 4 0 2 1016.6 1015.1 0.0
27/02:30am 4.6 3.3 3.9 95 0.3 CALM 0 0 0 0 1016.6 1015.1 0.0
27/02:00am 5.3 4.0 4.2 93 0.5 CALM 0 0 0 0 1016.6 1015.1 0.0
27/01:30am 7.6 6.6 5.6 87 0.9 CALM 0 0 0 0 1016.5 1015.0 0.0
27/01:00am 7.4 6.4 5.4 87 0.9 CALM 0 7 0 4 1016.9 1015.4 0.0
27/12:30am 9.9 7.5 5.2 72 2.2 W 7 11 4 6 1017.1 1015.6 0.0
 
Date/Time
EST
Tmp

°C
App
Tmp
°C
Dew
Point
°C
Rel
Hum
%
Delta-T

°C
Wind Press
QNH
hPa
Press
MSL
hPa
Rain
since
9 am
mm
Dir
 
Spd
km/h
Gust
km/h
Spd
kts
Gust
kts
26/11:30pm 11.1 7.9 5.1 66 2.8 W 11 17 6 9 1017.9 1016.4 0.0
26/11:00pm 9.2 6.8 5.1 75 1.9 W 7 13 4 7 1018.2 1016.7 0.0
26/10:30pm 11.2 9.0 5.5 68 2.7 W 6 11 3 6 1018.3 1016.8 0.0
26/10:00pm 11.3 8.8 4.9 65 3.0 W 7 13 4 7 1018.2 1016.7 0.0
26/09:30pm 10.8 8.5 5.7 71 2.4 WNW 7 9 4 5 1018.1 1016.6 0.0
26/09:00pm 10.3 7.8 4.9 69 2.5 NNE 7 9 4 5 1018.0 1016.5 0.0
26/08:30pm 11.6 8.9 5.5 66 2.9 W 9 17 5 9 1017.5 1015.9 0.0
26/08:00pm 11.9 9.1 5.1 63 3.2 W 9 15 5 8 1017.4 1015.8 0.0
26/07:30pm 11.2 9.0 5.5 68 2.7 W 6 9 3 5 1017.0 1015.5 0.0
26/07:00pm 12.0 8.4 5.0 62 3.3 WSW 13 19 7 10 1016.5 1015.0 0.0
26/06:30pm 11.4 8.3 5.5 67 2.8 WSW 11 17 6 9 1015.9 1014.3 0.0
26/06:00pm 12.9 8.8 4.4 56 4.0 WSW 15 20 8 11 1015.6 1014.0 0.0
26/05:30pm 13.2 9.1 4.5 55 4.1 WSW 15 22 8 12 1015.2 1013.6 0.0
26/05:00pm 14.6 10.5 4.3 50 4.9 WSW 15 20 8 11 1014.6 1013.1 0.0
26/04:30pm 15.4 9.9 4.0 46 5.4 WSW 22 33 12 18 1014.1 1012.5 0.0
26/04:00pm 15.9 10.0 3.9 44 5.7 WSW 24 35 13 19 1013.9 1012.3 0.0
26/03:30pm 16.1 9.3 3.1 41 6.1 WSW 28 44 15 24 1013.6 1012.0 0.0
26/03:00pm 16.0 9.2 3.2 42 6.0 SW 28 43 15 23 1013.3 1011.7 0.0
26/02:30pm 16.0 8.8 3.2 42 6.0 WSW 30 44 16 24 1013.2 1011.6 0.0
26/02:00pm 15.8 8.1 3.2 43 5.9 WSW 33 50 18 27 1013.3 1011.7 0.0
26/01:48pm 16.1 9.4 3.4 42 6.0 WSW 28 48 15 26 1013.3 1011.7 0.0
26/01:30pm 16.0 9.3 3.8 44 5.8 WSW 28 43 15 23 1013.3 1011.7 0.0
26/01:21pm 15.8 9.1 3.8 44 5.7 WSW 28 46 15 25 1013.3 1011.7 0.0
26/01:00pm 15.9 9.9 3.6 44 5.8 W 24 37 13 20 1013.3 1011.7 0.0
26/12:30pm 14.9 9.0 4.1 48 5.1 WSW 24 39 13 21 1013.6 1012.0 0.0
26/12:00pm 15.0 9.2 4.3 48 5.1 WSW 24 39 13 21 1013.8 1012.2 0.0
26/11:33am 14.9 8.2 3.6 46 5.3 WSW 28 46 15 25 1013.6 1012.0 0.0
26/11:30am 15.4 9.1 4.0 46 5.4 WSW 26 46 14 25 1013.6 1012.0 0.0
26/11:20am 15.1 8.1 3.9 47 5.3 WSW 30 52 16 28 1013.6 1012.0 0.0
26/11:00am 15.0 8.4 4.0 47 5.2 W 28 43 15 23 1013.7 1012.1 0.0
26/10:30am 15.0 8.2 2.9 44 5.6 WSW 28 54 15 29 1013.8 1012.2 0.0
26/10:00am 14.7 8.7 3.6 47 5.2 W 24 41 13 22 1014.1 1012.5 0.0
26/09:30am 14.3 8.8 3.8 49 4.9 WSW 22 39 12 21 1014.1 1012.5 0.0
26/09:00am 13.9 8.7 3.8 50 4.7 WSW 20 37 11 20 1014.1 1012.5 0.0
26/08:30am 13.2 7.6 3.7 52 4.4 W 22 37 12 20 1013.8 1012.2 0.0
26/08:00am 12.5 7.0 4.1 56 3.9 WSW 22 44 12 24 1013.9 1012.3 0.0
26/07:30am 11.9 7.7 3.9 58 3.7 WSW 15 26 8 14 1013.7 1012.1 0.0
26/07:00am 10.9 7.0 3.6 60 3.3 W 13 22 7 12 1013.3 1011.7 0.0
26/06:30am 10.5 6.6 3.4 61 3.2 WNW 13 20 7 11 1013.0 1011.4 0.0
26/06:00am 10.8 6.9 3.2 59 3.4 W 13 22 7 12 1012.5 1011.0 0.0
26/05:30am 11.7 6.9 2.5 53 4.1 WNW 17 28 9 15 1012.1 1010.5 0.0
26/05:00am 12.0 7.6 2.6 52 4.2 W 15 28 8 15 1011.8 1010.2 0.0
26/04:30am 12.3 7.5 2.5 51 4.4 W 17 24 9 13 1011.5 1009.9 0.0
26/04:00am 12.4 8.4 2.6 51 4.4 W 13 22 7 12 1011.4 1009.8 0.0
26/03:30am 12.6 8.7 3.2 52 4.3 W 13 22 7 12 1011.1 1009.5 0.0
26/03:00am 13.1 9.2 3.3 51 4.5 W 13 22 7 12 1011.1 1009.5 0.0
26/02:30am 13.9 9.7 3.6 50 4.8 W 15 28 8 15 1010.8 1009.2 0.0
26/02:00am 14.5 10.3 3.6 48 5.1 W 15 24 8 13 1010.7 1009.1 0.0
26/01:30am 15.2 11.4 3.8 46 5.4 W 13 22 7 12 1010.9 1009.3 0.0
26/01:00am 15.7 11.5 3.6 44 5.7 WNW 15 19 8 10 1010.8 1009.2 0.0
26/12:30am 15.6 11.8 4.1 46 5.5 WNW 13 17 7 9 1010.8 1009.2 0.0
26/12:00am 15.3 12.0 4.4 48 5.2 WNW 11 15 6 8 1010.9 1009.3 0.0
 
Date/Time
EST
Tmp

°C
App
Tmp
°C
Dew
Point
°C
Rel
Hum
%
Delta-T

°C
Wind Press
QNH
hPa
Press
MSL
hPa
Rain
since
9 am
mm
Dir
 
Spd
km/h
Gust
km/h
Spd
kts
Gust
kts
25/11:30pm 13.6 10.8 5.0 56 4.1 WSW 9 15 5 8 1011.0 1009.4 0.0
25/11:00pm 15.5 13.0 4.5 48 5.3 WNW 7 13 4 7 1011.2 1009.6 0.0
25/10:30pm 13.2 11.6 6.3 63 3.4 WNW 4 13 2 7 1011.2 1009.6 0.0
25/10:00pm 13.5 11.5 6.1 61 3.6 WSW 6 9 3 5 1011.4 1009.8 0.0
25/09:30pm 13.4 11.8 6.5 63 3.4 SW 4 9 2 5 1011.4 1009.8 0.0
25/09:00pm 12.5 10.7 7.3 70 2.6 W 6 9 3 5 1011.6 1010.0 0.0
25/08:30pm 16.0 14.8 6.4 53 4.8 NW 2 9 1 5 1011.3 1009.7 0.0
25/08:00pm 17.9 15.5 5.2 43 6.3 NW 7 11 4 6 1011.0 1009.4 0.0
25/07:30pm 18.7 16.0 5.5 42 6.6 WNW 9 13 5 7 1010.7 1009.1 0.0
25/07:00pm 18.9 16.2 5.6 41 6.7 NW 9 13 5 7 1010.3 1008.7 0.0
25/06:30pm 19.1 16.9 6.1 42 6.6 NW 7 11 4 6 1010.0 1008.4 0.0
25/06:00pm 20.7 17.8 6.6 40 7.3 WNW 11 15 6 8 1009.7 1008.1 0.0
25/05:30pm 21.8 19.3 6.4 36 8.0 WNW 9 15 5 8 1009.4 1007.8 0.0
25/05:00pm 22.7 20.0 7.5 37 8.1 W 11 19 6 10 1009.3 1007.7 0.0
25/04:30pm 23.7 20.6 7.2 34 8.8 W 13 22 7 12 1009.1 1007.5 0.0
25/04:00pm 24.8 20.5 5.4 28 10.1 WSW 17 28 9 15 1008.8 1007.2 0.0
25/03:30pm 25.2 21.3 5.5 28 10.3 W 15 28 8 15 1008.8 1007.2 0.0
25/03:00pm 25.2 21.6 5.2 27 10.4 WNW 13 20 7 11 1008.8 1007.2 0.0
25/02:30pm 25.1 20.8 5.3 28 10.3 W 17 26 9 14 1008.9 1007.3 0.0
25/02:00pm 25.1 21.2 5.3 28 10.3 W 15 22 8 12 1009.1 1007.5 0.0
25/01:30pm 24.8 20.6 5.7 29 10.0 W 17 28 9 15 1009.2 1007.6 0.0
25/01:00pm 24.6 20.5 6.2 30 9.7 W 17 30 9 16 1009.6 1008.0 0.0
25/12:30pm 23.9 20.5 7.5 35 8.8 W 15 24 8 13 1010.1 1008.5 0.0
25/12:00pm 23.2 19.4 5.6 32 9.1 WSW 15 26 8 14 1010.4 1008.8 0.0
25/11:30am 23.4 19.9 5.6 31 9.2 W 13 22 7 12 1011.0 1009.4 0.0
25/11:00am 23.2 20.5 7.5 36 8.4 W 11 20 6 11 1011.5 1009.9 0.0
25/10:30am 21.9 19.0 6.3 36 8.1 WNW 11 19 6 10 1011.7 1010.1 0.0
25/10:00am 21.0 19.9 8.3 44 6.8 WNW 4 11 2 6 1012.1 1010.5 0.0
25/09:30am 18.0 18.4 11.4 65 3.7 CALM 0 0 0 0 1012.4 1010.9 0.0
25/09:00am 15.4 15.8 11.2 76 2.3 CALM 0 0 0 0 1012.8 1011.2 0.0
25/08:30am 12.6 11.8 11.1 91 0.8 SW 6 9 3 5 1012.9 1011.3 0.0
25/08:00am 10.0 9.9 9.4 96 0.3 CALM 0 0 0 0 1012.6 1011.1 0.0
25/07:30am 7.8 7.2 7.4 97 0.2 CALM 0 0 0 0 1012.3 1010.8 0.0
25/07:00am 6.8 6.0 6.6 99 0.1 CALM 0 0 0 0 1012.0 1010.4 0.0
25/06:30am 5.9 5.0 5.9 100 0.0 CALM 0 0 0 0 1011.8 1010.2 0.0
25/06:00am 7.8 7.3 7.8 100 0.0 CALM 0 0 0 0 1011.4 1009.8 0.0
25/05:30am 7.5 6.9 7.5 100 0.0 CALM 0 0 0 0 1011.4 1009.8 0.0
25/05:00am 8.4 7.9 8.0 97 0.2 CALM 0 0 0 0 1011.2 1009.6 0.0
25/04:30am 8.6 8.3 8.6 100 0.0 CALM 0 0 0 0 1011.0 1009.4 0.0
25/04:00am 8.7 8.4 8.5 99 0.1 CALM 0 0 0 0 1011.0 1009.4 0.0
25/03:30am 8.7 8.4 8.5 99 0.1 CALM 0 0 0 0 1010.9 1009.3 0.0
25/03:00am 8.4 8.0 8.2 99 0.1 CALM 0 0 0 0 1010.8 1009.2 0.0
25/02:30am 9.2 8.8 8.2 93 0.5 CALM 0 0 0 0 1010.9 1009.3 0.0
25/02:00am 10.0 9.9 9.4 96 0.3 CALM 0 0 0 0 1011.2 1009.6 0.0
25/01:30am 9.2 8.9 8.8 97 0.2 CALM 0 0 0 0 1011.3 1009.7 0.0
25/01:00am 9.6 9.4 9.0 96 0.3 CALM 0 0 0 0 1011.6 1010.0 0.0
25/12:30am 9.6 9.4 9.2 97 0.2 CALM 0 0 0 0 1011.6 1010.0 0.0
25/12:00am 10.8 10.7 9.4 91 0.7 CALM 0 0 0 0 1011.5 1009.9 0.0
 
Date/Time
EST
Tmp

°C
App
Tmp
°C
Dew
Point
°C
Rel
Hum
%
Delta-T

°C
Wind Press
QNH
hPa
Press
MSL
hPa
Rain
since
9 am
mm
Dir
 
Spd
km/h
Gust
km/h
Spd
kts
Gust
kts
24/11:30pm 10.6 10.4 9.2 91 0.7 CALM 0 0 0 0 1011.5 1009.9 0.0
24/11:00pm 11.4 11.5 10.3 93 0.6 CALM 0 0 0 0 1011.7 1010.1 0.0
24/10:30pm 11.4 11.5 10.3 93 0.6 CALM 0 0 0 0 1011.5 1009.9 0.0
24/10:00pm 11.9 12.1 10.6 92 0.7 CALM 0 0 0 0 1011.5 1009.9 0.0
24/09:30pm 12.3 12.4 10.2 87 1.1 CALM 0 0 0 0 1011.5 1009.9 0.0
24/09:00pm 13.5 13.9 11.3 86 1.2 CALM 0 0 0 0 1011.4 1009.8 0.0
24/08:30pm 13.4 13.5 10.2 81 1.7 CALM 0 0 0 0 1011.4 1009.8 0.0
24/08:00pm 14.5 15.0 11.6 83 1.6 CALM 0 0 0 0 1011.1 1009.5 0.0
24/07:30pm 16.0 16.1 10.1 68 3.2 CALM 0 0 0 0 1010.9 1009.3 0.0
24/07:00pm 16.1 15.2 10.8 71 2.9 WNW 6 7 3 4 1010.6 1009.0 0.0
24/06:30pm 17.9 16.7 10.4 61 4.1 WNW 7 9 4 5 1010.2 1008.6 0.0
24/06:00pm 17.4 16.3 10.7 65 3.7 WNW 7 9 4 5 1009.9 1008.3 0.0
24/05:30pm 18.6 18.1 10.9 61 4.3 W 4 7 2 4 1009.6 1008.0 0.0
24/05:00pm 21.6 20.4 10.3 48 6.3 WNW 7 11 4 6 1009.3 1007.7 0.0
24/04:30pm 22.5 19.3 9.9 44 7.0 WSW 17 24 9 13 1009.1 1007.5 0.0
24/04:00pm 23.7 21.0 10.4 43 7.5 WSW 15 26 8 14 1008.9 1007.3 0.0
24/03:30pm 23.5 21.7 9.5 41 7.8 WSW 9 15 5 8 1008.9 1007.3 0.0
24/03:00pm 24.5 21.6 9.7 39 8.3 WSW 15 28 8 15 1008.9 1007.3 0.0
24/02:30pm 24.1 21.3 10.1 41 7.9 W 15 24 8 13 1009.1 1007.5 0.0
24/02:00pm 24.2 21.1 10.4 41 7.8 W 17 30 9 16 1009.1 1007.5 0.0
24/01:30pm 24.2 22.1 11.1 43 7.5 W 13 20 7 11 1009.2 1007.6 0.0
24/01:00pm 23.4 21.3 11.2 46 7.0 W 13 24 7 13 1009.5 1007.9 0.0
24/12:30pm 23.1 20.5 12.1 50 6.4 WNW 17 28 9 15 1010.0 1008.4 0.0
24/12:00pm 21.8 20.4 12.3 54 5.5 W 11 22 6 12 1010.6 1009.0 0.0
24/11:30am 22.0 20.6 12.1 53 5.7 W 11 17 6 9 1011.4 1009.8 0.0
24/11:00am 21.2 19.4 10.9 51 5.8 W 11 15 6 8 1011.7 1010.1 0.0
24/10:30am 20.6 19.5 11.8 57 5.0 WNW 9 13 5 7 1011.9 1010.3 0.0
24/10:00am 19.3 18.3 12.3 64 4.0 WNW 9 15 5 8 1012.3 1010.8 0.0
24/09:30am 17.1 17.9 12.7 75 2.5 CALM 0 0 0 0 1012.3 1010.8 0.0
24/09:00am 15.9 16.6 12.3 79 2.0 CALM 0 6 0 3 1012.5 1011.0 0.0

Latest Capital City Observations: Canberra | Sydney | Melbourne | Brisbane | Adelaide | Perth | Hobart | Darwin

Other Formats:

Comma delimited format used in spreadsheet applications
http://www.bom.gov.au/fwo/IDQ60901/IDQ60901.94555.axf

JavaScript Object Notation format (JSON) in row-major order
http://www.bom.gov.au/fwo/IDQ60901/IDQ60901.94555.json